createdAt,value
2023-02-07T00:00:41.198Z,13.57
2023-02-07T00:03:44.723Z,11.88
2023-02-07T00:06:47.512Z,11.15
2023-02-07T00:09:50.954Z,10.40
2023-02-07T00:12:54.116Z,12.23
2023-02-07T00:15:56.957Z,12.77
2023-02-07T00:19:00.464Z,12.95
2023-02-07T00:22:03.920Z,13.82
2023-02-07T00:25:06.862Z,13.65
2023-02-07T00:28:12.794Z,12.97
2023-02-07T00:31:19.466Z,12.30
2023-02-07T00:34:22.311Z,15.13
2023-02-07T00:37:25.046Z,14.23
2023-02-07T00:40:28.780Z,13.13
2023-02-07T00:43:31.975Z,15.27
2023-02-07T00:46:35.929Z,15.43
2023-02-07T00:49:38.765Z,17.27
2023-02-07T00:52:44.514Z,17.25
2023-02-07T00:55:47.442Z,16.98
2023-02-07T00:58:51.076Z,15.97
2023-02-07T01:01:53.979Z,16.27
2023-02-07T01:04:56.968Z,12.30
2023-02-07T01:07:59.967Z,13.52
2023-02-07T01:11:09.276Z,14.27
2023-02-07T01:14:13.093Z,12.80
2023-02-07T01:17:18.859Z,13.07
2023-02-07T01:20:25.162Z,13.80
2023-02-07T01:23:28.010Z,12.73
2023-02-07T01:26:30.961Z,13.98
2023-02-07T01:29:37.051Z,14.23
2023-02-07T01:32:43.035Z,14.07
2023-02-07T01:35:47.339Z,15.70
2023-02-07T01:38:52.403Z,13.65
2023-02-07T01:41:55.273Z,13.90
2023-02-07T01:45:16.902Z,14.73
2023-02-07T01:48:31.816Z,14.13
2023-02-07T01:51:35.650Z,13.13
2023-02-07T01:54:38.835Z,12.98
2023-02-07T01:57:41.920Z,13.20
2023-02-07T02:00:45.506Z,14.37
2023-02-07T02:03:50.057Z,12.13
2023-02-07T02:06:53.351Z,13.45
2023-02-07T02:09:56.189Z,12.30
2023-02-07T02:13:06.543Z,14.63
2023-02-07T02:16:15.486Z,14.63
2023-02-07T02:20:06.313Z,14.70
2023-02-07T02:23:20.977Z,14.38
2023-02-07T02:26:35.068Z,14.63
2023-02-07T02:29:49.041Z,12.63
2023-02-07T02:33:10.406Z,14.60
2023-02-07T02:36:35.163Z,14.17
2023-02-07T02:40:17.141Z,13.23
2023-02-07T02:43:36.139Z,13.98
2023-02-07T02:46:40.458Z,13.65
2023-02-07T02:49:44.795Z,13.33
2023-02-07T02:52:50.903Z,14.70
2023-02-07T02:56:15.822Z,13.77
2023-02-07T02:59:49.754Z,14.50
2023-02-07T03:03:16.100Z,15.13
2023-02-07T03:06:34.097Z,14.63
2023-02-07T03:10:09.185Z,14.77
2023-02-07T03:13:16.360Z,13.68
2023-02-07T03:16:34.340Z,15.10
2023-02-07T03:19:50.255Z,15.20
2023-02-07T03:22:53.852Z,15.50
2023-02-07T03:25:58.792Z,14.67
2023-02-07T03:29:04.086Z,12.68
2023-02-07T03:32:11.323Z,14.95
2023-02-07T03:35:26.329Z,13.90
2023-02-07T03:38:29.255Z,14.73
2023-02-07T03:41:42.685Z,15.57
2023-02-07T03:44:45.859Z,14.05
2023-02-07T03:47:49.437Z,13.98
2023-02-07T03:50:53.196Z,14.25
2023-02-07T03:53:59.369Z,14.10
2023-02-07T03:57:02.734Z,15.10
2023-02-07T04:00:07.314Z,14.43
2023-02-07T04:03:18.794Z,16.15
2023-02-07T04:06:23.211Z,14.20
2023-02-07T04:09:28.829Z,14.30
2023-02-07T04:12:34.584Z,13.90
2023-02-07T04:15:38.401Z,13.70
2023-02-07T04:18:41.548Z,13.95
2023-02-07T04:21:48.166Z,13.82
2023-02-07T04:24:51.021Z,12.93
2023-02-07T04:27:56.887Z,13.97
2023-02-07T04:30:59.865Z,14.00
2023-02-07T04:34:02.690Z,14.10
2023-02-07T04:37:05.659Z,13.62
2023-02-07T04:40:08.883Z,16.20
2023-02-07T04:43:23.640Z,11.97
2023-02-07T04:46:30.524Z,13.82
2023-02-07T04:49:34.559Z,14.85
2023-02-07T04:52:37.905Z,14.18
2023-02-07T04:55:40.910Z,15.30
2023-02-07T04:58:44.133Z,15.23
2023-02-07T05:01:47.466Z,13.02
2023-02-07T05:04:50.383Z,14.40
2023-02-07T05:07:53.349Z,13.35
2023-02-07T05:11:02.479Z,14.23
2023-02-07T05:14:05.333Z,13.87
2023-02-07T05:17:12.002Z,12.70
2023-02-07T05:20:14.937Z,13.65
2023-02-07T05:23:18.355Z,14.48
2023-02-07T05:26:21.214Z,12.63
2023-02-07T05:29:24.238Z,13.83
2023-02-07T05:32:45.583Z,13.93
2023-02-07T05:35:48.579Z,12.20
2023-02-07T05:38:54.568Z,13.45
2023-02-07T05:41:57.298Z,12.40
2023-02-07T05:45:00.251Z,14.30
2023-02-07T05:48:09.176Z,12.70
2023-02-07T05:51:12.985Z,12.45
2023-02-07T05:54:18.765Z,12.50
2023-02-07T05:57:21.589Z,10.53
2023-02-07T06:00:24.640Z,11.97
2023-02-07T06:03:33.730Z,12.35
2023-02-07T06:06:39.493Z,12.05
2023-02-07T06:09:45.239Z,10.80
2023-02-07T06:12:48.049Z,12.40
2023-02-07T06:15:50.913Z,11.87
2023-02-07T06:18:56.962Z,11.27
2023-02-07T06:22:02.748Z,11.35
2023-02-07T06:25:05.871Z,12.15
2023-02-07T06:28:09.157Z,11.63
2023-02-07T06:31:13.004Z,11.03
2023-02-07T06:34:19.115Z,11.82
2023-02-07T06:37:21.831Z,14.02
2023-02-07T06:40:25.366Z,13.00
2023-02-07T06:43:28.134Z,13.97
2023-02-07T06:46:31.526Z,22.47
2023-02-07T06:49:35.059Z,11.68
2023-02-07T06:52:37.970Z,11.57
2023-02-07T06:55:41.019Z,12.15
2023-02-07T06:58:53.329Z,11.97
2023-02-07T07:02:00.763Z,11.73
2023-02-07T07:05:04.140Z,11.68
2023-02-07T07:08:07.679Z,11.38
2023-02-07T07:11:10.575Z,15.85
2023-02-07T07:14:13.396Z,11.37
2023-02-07T07:17:19.355Z,14.17
2023-02-07T07:20:23.529Z,30.40
2023-02-07T07:23:27.073Z,13.25
2023-02-07T07:26:47.861Z,13.18
2023-02-07T07:29:54.987Z,13.23
2023-02-07T07:32:57.759Z,19.13
2023-02-07T07:36:01.763Z,13.85
2023-02-07T07:39:05.466Z,12.35
2023-02-07T07:42:08.397Z,15.85
2023-02-07T07:45:11.267Z,14.83
2023-02-07T07:48:17.407Z,14.77
2023-02-07T07:51:20.471Z,16.15
2023-02-07T07:54:23.622Z,15.68
2023-02-07T07:57:32.788Z,17.15
2023-02-07T08:00:39.430Z,16.93
2023-02-07T08:03:42.424Z,16.77
2023-02-07T08:06:46.079Z,17.15
2023-02-07T08:09:48.904Z,16.05
2023-02-07T08:12:51.769Z,17.08
2023-02-07T08:15:55.503Z,17.27
2023-02-07T08:18:58.367Z,15.23
2023-02-07T08:22:01.217Z,14.80
2023-02-07T08:25:13.445Z,17.40
2023-02-07T08:28:20.188Z,15.32
2023-02-07T08:31:23.467Z,17.23
2023-02-07T08:34:29.131Z,15.27
2023-02-07T08:37:31.994Z,14.95
2023-02-07T08:40:35.536Z,17.30
2023-02-07T08:43:39.502Z,17.58
2023-02-07T08:46:42.870Z,15.97
2023-02-07T08:49:45.795Z,17.47
2023-02-07T08:52:48.600Z,17.02
2023-02-07T08:55:52.193Z,19.60
2023-02-07T08:58:55.048Z,15.38
2023-02-07T09:02:07.757Z,17.97
2023-02-07T09:05:12.538Z,16.50
2023-02-07T09:08:15.567Z,15.05
2023-02-07T09:11:18.788Z,17.02
2023-02-07T09:14:22.355Z,22.42
2023-02-07T09:17:25.333Z,17.77
2023-02-07T09:20:29.854Z,17.90
2023-02-07T09:23:37.209Z,16.85
2023-02-07T09:26:45.862Z,206.07
2023-02-07T09:29:49.222Z,217.50
2023-02-07T09:32:53.449Z,17.83
2023-02-07T09:35:59.469Z,16.37
2023-02-07T09:39:03.950Z,17.02
2023-02-07T09:42:43.721Z,15.55
2023-02-07T09:45:49.283Z,15.85
2023-02-07T09:49:18.452Z,40.07
2023-02-07T09:52:31.772Z,16.17
2023-02-07T09:55:50.460Z,35.83
2023-02-07T09:59:24.180Z,16.23
2023-02-07T10:02:34.964Z,15.38
2023-02-07T10:05:46.352Z,15.30
2023-02-07T10:08:52.750Z,41.00
2023-02-07T10:12:28.801Z,34.90
2023-02-07T10:15:43.382Z,19.12
2023-02-07T10:19:09.957Z,18.90
2023-02-07T10:22:42.069Z,15.23
2023-02-07T10:26:12.550Z,19.97
2023-02-07T10:29:26.367Z,16.80
2023-02-07T10:32:34.129Z,16.67
2023-02-07T10:35:37.555Z,15.25
2023-02-07T10:38:50.257Z,14.43
2023-02-07T10:42:00.220Z,14.67
2023-02-07T10:45:05.580Z,16.23
2023-02-07T10:48:20.070Z,16.48
2023-02-07T10:51:36.977Z,16.50
2023-02-07T10:54:54.762Z,16.30
2023-02-07T10:58:08.538Z,16.53
2023-02-07T11:01:24.195Z,16.33
2023-02-07T11:04:38.980Z,16.17
2023-02-07T11:07:47.940Z,15.23
2023-02-07T11:10:56.078Z,16.70
2023-02-07T11:14:05.446Z,17.00
2023-02-07T11:17:08.365Z,16.77
2023-02-07T11:20:21.443Z,17.27
2023-02-07T11:23:24.498Z,14.98
2023-02-07T11:26:32.072Z,16.13
2023-02-07T11:29:41.807Z,15.83
2023-02-07T11:32:58.143Z,14.45
2023-02-07T11:36:12.762Z,14.45
2023-02-07T11:39:19.798Z,15.50
2023-02-07T11:42:26.239Z,14.30
2023-02-07T11:45:34.713Z,13.30
2023-02-07T11:48:40.356Z,15.18
2023-02-07T11:51:46.478Z,14.45
2023-02-07T11:54:53.561Z,13.43
2023-02-07T11:58:07.696Z,13.90
2023-02-07T12:01:18.028Z,13.30
2023-02-07T12:04:28.059Z,14.40
2023-02-07T12:07:39.423Z,14.93
2023-02-07T12:10:46.298Z,14.57
2023-02-07T12:14:02.275Z,13.73
2023-02-07T12:17:10.148Z,13.00
2023-02-07T12:20:39.650Z,13.70
2023-02-07T12:24:01.177Z,13.88
2023-02-07T12:27:16.047Z,14.05
2023-02-07T12:30:39.785Z,14.37
2023-02-07T12:33:49.204Z,14.03
2023-02-07T12:36:56.921Z,14.27
2023-02-07T12:40:21.809Z,13.90
2023-02-07T12:43:27.702Z,11.90
2023-02-07T12:46:50.537Z,12.93
2023-02-07T12:50:02.500Z,11.57
2023-02-07T12:53:22.501Z,10.52
2023-02-07T12:56:36.394Z,11.65
2023-02-07T13:00:06.466Z,10.18
2023-02-07T13:03:42.547Z,13.13
2023-02-07T13:07:15.098Z,12.73
2023-02-07T13:10:41.512Z,10.80
2023-02-07T13:14:05.114Z,9.55
2023-02-07T13:17:32.926Z,10.63
2023-02-07T13:20:51.938Z,9.83
2023-02-07T13:24:01.487Z,9.80
2023-02-07T13:27:08.451Z,9.93
2023-02-07T13:30:17.096Z,10.75
2023-02-07T13:33:39.423Z,9.60
2023-02-07T13:36:49.444Z,10.83
2023-02-07T13:40:06.369Z,10.83
2023-02-07T13:43:21.246Z,9.63
2023-02-07T13:46:45.797Z,9.60
2023-02-07T13:50:12.643Z,11.02
2023-02-07T13:53:37.436Z,9.97
2023-02-07T13:57:15.043Z,9.90
2023-02-07T14:00:21.186Z,9.18
2023-02-07T14:03:33.255Z,10.23
2023-02-07T14:06:41.206Z,10.52
2023-02-07T14:09:48.511Z,9.30
2023-02-07T14:12:54.488Z,9.80
2023-02-07T14:16:01.626Z,12.30
2023-02-07T14:19:04.721Z,9.75
2023-02-07T14:22:30.492Z,10.48
2023-02-07T14:25:36.697Z,12.37
2023-02-07T14:28:39.874Z,26.47
2023-02-07T14:32:22.395Z,11.02
2023-02-07T14:35:28.132Z,11.95
2023-02-07T14:38:38.159Z,15.43
2023-02-07T14:41:43.350Z,11.40
2023-02-07T14:44:50.125Z,137.77
2023-02-07T14:47:53.094Z,18.90
2023-02-07T14:50:56.120Z,10.32
2023-02-07T14:54:23.950Z,10.05
2023-02-07T14:57:36.189Z,11.30
2023-02-07T15:00:45.402Z,11.57
2023-02-07T15:04:06.170Z,8.80
2023-02-07T15:07:13.493Z,8.75
2023-02-07T15:10:27.789Z,13.23
2023-02-07T15:13:34.379Z,10.37
2023-02-07T15:16:40.386Z,7.03
2023-02-07T15:19:43.218Z,7.25
2023-02-07T15:22:50.705Z,7.62
2023-02-07T15:25:53.696Z,7.70
2023-02-07T15:29:02.257Z,7.73
2023-02-07T15:32:24.497Z,8.00
2023-02-07T15:35:30.093Z,7.87
2023-02-07T15:38:33.428Z,12.85
2023-02-07T15:41:39.129Z,13.62
2023-02-07T15:44:56.562Z,12.80
2023-02-07T15:48:03.411Z,10.47
2023-02-07T15:51:11.265Z,12.00
2023-02-07T15:54:16.503Z,13.62
2023-02-07T15:57:26.483Z,11.05
2023-02-07T16:00:32.097Z,12.37
2023-02-07T16:03:37.870Z,13.53
2023-02-07T16:06:55.194Z,13.25
2023-02-07T16:10:24.039Z,12.82
2023-02-07T16:13:26.881Z,12.90
2023-02-07T16:16:36.187Z,12.23
2023-02-07T16:19:46.441Z,10.27
2023-02-07T16:22:50.187Z,10.27
2023-02-07T16:25:53.374Z,12.23
2023-02-07T16:28:56.644Z,12.63
2023-02-07T16:31:59.800Z,13.33
2023-02-07T16:35:02.817Z,14.83
2023-02-07T16:38:06.437Z,14.25
2023-02-07T16:41:33.137Z,12.52
2023-02-07T16:44:37.275Z,12.37
2023-02-07T16:47:40.050Z,13.40
2023-02-07T16:50:43.377Z,14.10
2023-02-07T16:53:46.116Z,14.10
2023-02-07T16:56:51.755Z,14.35
2023-02-07T16:59:54.476Z,17.30
2023-02-07T17:02:58.377Z,21.17
2023-02-07T17:06:01.272Z,23.53
2023-02-07T17:09:04.718Z,27.58
2023-02-07T17:12:09.220Z,28.70
2023-02-07T17:15:12.382Z,34.58
2023-02-07T17:18:15.279Z,35.97
2023-02-07T17:21:18.442Z,34.67
2023-02-07T17:24:21.457Z,33.10
2023-02-07T17:27:24.409Z,32.53
2023-02-07T17:30:38.860Z,27.75
2023-02-07T17:33:41.890Z,21.13
2023-02-07T17:36:47.769Z,18.90
2023-02-07T17:39:54.417Z,18.33
2023-02-07T17:42:57.862Z,22.77
2023-02-07T17:46:01.999Z,25.35
2023-02-07T17:49:06.538Z,27.07
2023-02-07T17:52:15.476Z,25.77
2023-02-07T17:55:21.552Z,29.92
2023-02-07T17:58:24.912Z,34.95
2023-02-07T18:01:28.310Z,34.30
2023-02-07T18:04:31.419Z,34.27
2023-02-07T18:07:34.119Z,35.83
2023-02-07T18:10:39.694Z,31.95
2023-02-07T18:13:46.109Z,33.78
2023-02-07T18:16:49.436Z,32.95
2023-02-07T18:19:52.610Z,32.13
2023-02-07T18:22:57.223Z,31.87
2023-02-07T18:26:00.952Z,29.92
2023-02-07T18:29:04.092Z,32.90
2023-02-07T18:32:08.297Z,31.55
2023-02-07T18:35:12.113Z,31.77
2023-02-07T18:38:15.838Z,31.23
2023-02-07T18:41:23.598Z,34.38
2023-02-07T18:44:27.033Z,42.15
2023-02-07T18:47:31.985Z,41.75
2023-02-07T18:50:35.433Z,43.10
2023-02-07T18:53:39.538Z,43.03
2023-02-07T18:56:42.861Z,47.45
2023-02-07T18:59:45.691Z,49.45
2023-02-07T19:02:49.240Z,49.78
2023-02-07T19:05:57.671Z,49.37
2023-02-07T19:09:03.787Z,46.80
2023-02-07T19:12:09.243Z,48.78
2023-02-07T19:15:13.062Z,46.65
2023-02-07T19:18:16.340Z,53.72
2023-02-07T19:21:24.070Z,52.90
2023-02-07T19:24:27.960Z,47.63
2023-02-07T19:27:30.845Z,47.80
2023-02-07T19:30:34.252Z,47.45
2023-02-07T19:33:37.295Z,46.22
2023-02-07T19:36:41.429Z,45.77
2023-02-07T19:39:46.367Z,43.20
2023-02-07T19:42:49.745Z,45.20
2023-02-07T19:45:53.887Z,43.72
2023-02-07T19:48:58.943Z,46.80
2023-02-07T19:52:01.940Z,47.67
2023-02-07T19:55:05.308Z,50.07
2023-02-07T19:58:08.689Z,46.50
2023-02-07T20:01:12.718Z,48.08
2023-02-07T20:04:15.832Z,48.95
2023-02-07T20:07:19.083Z,51.93
2023-02-07T20:10:22.567Z,51.93
2023-02-07T20:13:25.669Z,50.55
2023-02-07T20:16:31.662Z,50.65
2023-02-07T20:19:35.874Z,53.53
2023-02-07T20:22:39.003Z,57.03
2023-02-07T20:25:42.354Z,56.07
2023-02-07T20:28:46.486Z,55.12
2023-02-07T20:31:50.175Z,64.68
2023-02-07T20:34:53.388Z,71.50
2023-02-07T20:37:57.196Z,66.27
2023-02-07T20:41:08.987Z,68.10
2023-02-07T20:44:14.991Z,69.40
2023-02-07T20:47:18.039Z,69.00
2023-02-07T20:50:22.360Z,69.07
2023-02-07T20:53:25.504Z,64.60
2023-02-07T20:56:29.017Z,64.00
2023-02-07T20:59:33.051Z,65.57
2023-02-07T21:02:37.149Z,73.30
2023-02-07T21:05:40.116Z,73.18
2023-02-07T21:08:43.305Z,70.47
2023-02-07T21:11:49.203Z,97.37
2023-02-07T21:14:52.213Z,93.85
2023-02-07T21:17:54.984Z,101.60
2023-02-07T21:20:58.225Z,103.93
2023-02-07T21:24:01.401Z,97.63
2023-02-07T21:27:05.356Z,94.53
2023-02-07T21:30:09.013Z,89.82
2023-02-07T21:33:15.568Z,90.53
2023-02-07T21:36:25.810Z,91.82
2023-02-07T21:39:28.871Z,83.87
2023-02-07T21:42:32.172Z,85.60
2023-02-07T21:45:35.220Z,81.53
2023-02-07T21:48:39.453Z,77.55
2023-02-07T21:51:43.715Z,74.12
2023-02-07T21:54:46.554Z,72.73
2023-02-07T21:57:49.431Z,73.27
2023-02-07T22:00:55.218Z,70.55
2023-02-07T22:03:59.931Z,65.90
2023-02-07T22:07:02.765Z,67.53
2023-02-07T22:10:05.805Z,65.93
2023-02-07T22:13:12.970Z,67.83
2023-02-07T22:16:17.397Z,64.25
2023-02-07T22:19:21.028Z,67.12
2023-02-07T22:22:23.875Z,68.03
2023-02-07T22:25:26.640Z,67.43
2023-02-07T22:28:30.055Z,67.03
2023-02-07T22:31:35.733Z,68.97
2023-02-07T22:34:41.070Z,73.62
2023-02-07T22:37:43.810Z,71.12
2023-02-07T22:40:46.749Z,75.83
2023-02-07T22:43:49.672Z,73.17
2023-02-07T22:46:52.528Z,74.32
2023-02-07T22:49:55.298Z,71.82
2023-02-07T22:52:58.540Z,73.05
2023-02-07T22:56:02.044Z,68.20
2023-02-07T22:59:05.749Z,70.23
2023-02-07T23:02:08.821Z,66.78
2023-02-07T23:05:12.224Z,63.40
2023-02-07T23:08:14.962Z,61.25
2023-02-07T23:11:19.894Z,58.17
2023-02-07T23:14:22.747Z,54.13
2023-02-07T23:17:26.479Z,55.03
2023-02-07T23:20:29.923Z,56.97
2023-02-07T23:23:32.747Z,53.50
2023-02-07T23:26:35.614Z,49.13
2023-02-07T23:29:40.413Z,41.47
2023-02-07T23:32:43.316Z,40.10
2023-02-07T23:35:46.026Z,33.65
2023-02-07T23:38:49.450Z,31.52
2023-02-07T23:41:52.206Z,31.60
2023-02-07T23:44:54.961Z,31.20
2023-02-07T23:47:58.527Z,31.27
2023-02-07T23:51:03.743Z,32.08
2023-02-07T23:54:06.454Z,31.10
2023-02-07T23:57:09.189Z,30.77
